Time;durP1;ratioP1;P1;durP2;ratioP2;P2;SDS_P1;SDS_P2;PMS_P1;PMS_P2;Temp;Humidity;BMP_temperature;BMP_pressure;BME280_temperature;BME280_humidity;BME280_pressure;Samples;Min_cycle;Max_cycle;Signal;HPM_P1;HPM_P2
2023/01/14 00:01:19;;;;;;;13.77;1.92;;;7.10;99.90;;;;;;5055097;28;20094;-83
2023/01/14 00:03:46;;;;;;;14.98;2.10;;;7.00;99.90;;;;;;5054911;28;20451;-84
2023/01/14 00:06:14;;;;;;;13.80;2.28;;;7.00;99.90;;;;;;5038678;28;20094;-84
2023/01/14 00:08:40;;;;;;;14.63;2.42;;;7.00;99.90;;;;;;5055319;28;20044;-84
2023/01/14 00:11:09;;;;;;;12.85;2.25;;;7.00;99.90;;;;;;5038752;28;20466;-85
2023/01/14 00:13:37;;;;;;;14.63;2.35;;;7.00;99.90;;;;;;5038372;28;20036;-83
2023/01/14 00:16:04;;;;;;;20.35;3.13;;;6.90;99.90;;;;;;5055225;28;20047;-85
2023/01/14 00:18:32;;;;;;;12.20;1.77;;;6.90;99.90;;;;;;5038389;28;20546;-84
2023/01/14 00:21:03;;;;;;;16.00;2.72;;;6.90;99.90;;;;;;5038545;28;20097;-84
2023/01/14 00:23:30;;;;;;;18.05;2.60;;;6.90;99.90;;;;;;5054769;28;20048;-83
2023/01/14 00:26:05;;;;;;;13.63;2.47;;;7.00;99.90;;;;;;5038553;28;20063;-85
2023/01/14 00:28:31;;;;;;;15.15;2.17;;;7.00;99.90;;;;;;5054920;28;20061;-84
2023/01/14 00:31:06;;;;;;;14.98;2.28;;;7.10;99.90;;;;;;5055174;28;20435;-83
2023/01/14 00:33:32;;;;;;;16.38;2.10;;;7.10;99.90;;;;;;5054763;28;20477;-83
2023/01/14 00:35:58;;;;;;;13.18;2.33;;;7.20;99.90;;;;;;5055549;28;20041;-84
2023/01/14 00:38:24;;;;;;;19.02;3.00;;;7.20;99.90;;;;;;5042357;28;20048;-83
2023/01/14 00:41:00;;;;;;;10.55;1.65;;;7.30;99.90;;;;;;5042499;28;20041;-83
2023/01/14 00:43:25;;;;;;;13.60;2.63;;;7.20;99.90;;;;;;5058621;28;20037;-83
2023/01/14 00:45:51;;;;;;;14.38;2.30;;;7.30;99.90;;;;;;5058976;28;20588;-85
2023/01/14 00:48:17;;;;;;;23.48;3.28;;;7.30;99.90;;;;;;5042150;28;20048;-84
2023/01/14 00:50:42;;;;;;;21.48;3.00;;;7.30;99.90;;;;;;5025748;28;20052;-84
2023/01/14 00:53:08;;;;;;;14.23;2.92;;;7.30;99.90;;;;;;5042310;28;20080;-84
2023/01/14 00:55:34;;;;;;;21.73;2.92;;;7.30;99.90;;;;;;5041901;28;20388;-84
2023/01/14 00:58:00;;;;;;;22.45;2.75;;;7.20;99.90;;;;;;5042201;28;20128;-84
2023/01/14 01:00:26;;;;;;;18.02;2.72;;;7.40;99.90;;;;;;5041920;28;20084;-86
2023/01/14 01:02:52;;;;;;;16.02;2.85;;;7.20;99.90;;;;;;5041444;28;20459;-86
2023/01/14 01:05:17;;;;;;;13.88;3.00;;;7.10;99.90;;;;;;5058607;28;20078;-86
2023/01/14 01:07:43;;;;;;;13.70;2.38;;;7.10;99.90;;;;;;5058247;28;20068;-85
2023/01/14 01:10:10;;;;;;;20.02;2.83;;;7.10;99.90;;;;;;5026726;28;20112;-85
2023/01/14 01:12:35;;;;;;;13.60;2.40;;;7.10;99.90;;;;;;5058231;28;20052;-85
2023/01/14 01:15:01;;;;;;;20.85;3.05;;;7.10;99.90;;;;;;5041864;28;20469;-85
2023/01/14 01:17:28;;;;;;;20.02;2.88;;;7.20;99.90;;;;;;5058060;28;20041;-85
2023/01/14 01:19:54;;;;;;;15.77;2.38;;;7.10;99.90;;;;;;5041774;28;20045;-85
2023/01/14 01:22:21;;;;;;;18.20;2.15;;;7.10;99.90;;;;;;5041515;28;20052;-88
2023/01/14 01:24:47;;;;;;;17.88;2.35;;;7.10;99.90;;;;;;5041494;28;20051;-87
2023/01/14 01:27:12;;;;;;;18.27;2.30;;;7.10;99.90;;;;;;5058172;28;20037;-88
2023/01/14 01:29:38;;;;;;;20.38;2.75;;;7.20;99.90;;;;;;5057990;28;20500;-87
2023/01/14 01:32:04;;;;;;;12.52;2.05;;;7.30;99.90;;;;;;5058153;28;20045;-86
2023/01/14 01:34:30;;;;;;;14.43;2.72;;;7.20;99.90;;;;;;5041305;28;20040;-85
2023/01/14 01:36:55;;;;;;;17.63;2.33;;;7.20;99.90;;;;;;5041282;28;20432;-84
2023/01/14 01:39:21;;;;;;;14.85;2.17;;;7.30;99.90;;;;;;5024756;28;20370;-84
2023/01/14 01:41:47;;;;;;;22.55;2.60;;;7.30;99.90;;;;;;5024323;28;20102;-85
2023/01/14 01:44:13;;;;;;;15.30;2.60;;;7.30;99.90;;;;;;5041429;28;20097;-84
2023/01/14 01:46:39;;;;;;;22.75;2.47;;;7.30;99.90;;;;;;5041083;28;20492;-84
2023/01/14 01:49:14;;;;;;;12.93;2.25;;;7.30;99.90;;;;;;5058638;28;20048;-87
2023/01/14 01:51:47;;;;;;;19.20;2.63;;;7.30;99.90;;;;;;5045926;28;20098;-87
2023/01/14 01:54:13;;;;;;;21.00;2.65;;;7.20;99.90;;;;;;5044449;28;20131;-87
2023/01/14 01:56:45;;;;;;;21.48;2.50;;;7.20;99.90;;;;;;5059318;28;20119;-88
2023/01/14 01:59:15;;;;;;;12.02;3.00;;;7.10;99.90;;;;;;5075764;28;20044;-88
2023/01/14 02:01:42;;;;;;;17.85;3.35;;;7.00;99.90;;;;;;5058185;28;20048;-87
2023/01/14 02:04:10;;;;;;;13.80;3.08;;;7.10;99.90;;;;;;5040921;28;20048;-88
2023/01/14 02:06:36;;;;;;;15.65;2.25;;;7.10;99.90;;;;;;5040168;28;20144;-87
2023/01/14 02:09:03;;;;;;;14.32;2.70;;;7.10;99.90;;;;;;5040756;28;20083;-87
2023/01/14 02:11:46;;;;;;;14.95;2.58;;;7.10;99.90;;;;;;5040774;28;20098;-88
2023/01/14 02:14:17;;;;;;;12.30;2.45;;;7.00;99.90;;;;;;5040952;28;20048;-88
2023/01/14 02:16:49;;;;;;;;;;;7.00;99.90;;;;;;5057496;28;20041;-87
2023/01/14 02:19:15;;;;;;;;;;;7.00;99.90;;;;;;5057721;28;19927;-87
2023/01/14 02:21:47;;;;;;;14.65;2.30;;;7.10;99.90;;;;;;5056779;28;20323;-87
2023/01/14 02:24:36;;;;;;;16.48;2.50;;;7.00;99.90;;;;;;5057402;28;20037;-87
2023/01/14 02:27:21;;;;;;;17.55;4.07;;;7.00;99.90;;;;;;5057252;28;20392;-87
2023/01/14 02:29:58;;;;;;;18.67;2.50;;;6.90;99.90;;;;;;5056489;28;20556;-86
2023/01/14 02:32:37;;;;;;;22.30;2.40;;;7.00;99.90;;;;;;5057004;28;20153;-86
2023/01/14 02:35:12;;;;;;;14.77;2.10;;;6.90;99.90;;;;;;5040290;28;20135;-88
2023/01/14 02:38:13;;;;;;;15.13;2.35;;;7.00;99.90;;;;;;5056968;28;20045;-88
2023/01/14 02:40:46;;;;;;;15.40;2.03;;;7.00;99.90;;;;;;5012671;28;20101;-84
2023/01/14 02:44:10;;;;;;;8.15;1.77;;;7.00;99.90;;;;;;5039954;28;20048;-84
2023/01/14 02:46:40;;;;;;;18.42;2.28;;;7.00;99.90;;;;;;5043962;28;20113;-84
2023/01/14 02:49:10;;;;;;;14.55;2.35;;;7.00;99.90;;;;;;5056330;28;20389;-84
2023/01/14 02:51:37;;;;;;;18.85;3.40;;;7.00;99.90;;;;;;5040027;28;20048;-84
2023/01/14 02:54:03;;;;;;;19.70;2.67;;;7.00;99.90;;;;;;5056286;28;20040;-84
2023/01/14 02:56:29;;;;;;;15.65;2.30;;;7.00;99.90;;;;;;5023236;28;20045;-84
2023/01/14 02:59:05;;;;;;;14.50;1.98;;;7.00;99.90;;;;;;5039599;28;20040;-86
2023/01/14 03:01:58;;;;;;;14.07;2.25;;;6.90;99.90;;;;;;5056127;28;20052;-85
2023/01/14 03:04:30;;;;;;;22.83;2.53;;;6.80;99.90;;;;;;5039680;28;20683;-83
2023/01/14 03:07:16;;;;;;;16.25;3.08;;;6.80;99.90;;;;;;5055580;28;20489;-87
2023/01/14 03:10:00;;;;;;;15.93;2.58;;;6.60;99.90;;;;;;5056191;28;20056;-85
2023/01/14 03:12:48;;;;;;;12.02;2.00;;;6.60;99.90;;;;;;5039623;28;20485;-86
2023/01/14 03:15:41;;;;;;;16.52;2.63;;;6.50;99.90;;;;;;5056148;28;20052;-87
2023/01/14 03:18:38;;;;;;;20.20;2.53;;;6.60;99.90;;;;;;5039653;28;20048;-87
2023/01/14 03:21:09;;;;;;;17.23;3.03;;;6.60;99.90;;;;;;5055963;28;20094;-86
2023/01/14 03:23:41;;;;;;;19.13;2.17;;;6.70;99.90;;;;;;5056479;28;20112;-87
2023/01/14 03:26:08;;;;;;;19.40;2.05;;;6.60;99.90;;;;;;5055647;28;20090;-86
2023/01/14 03:28:38;;;;;;;18.42;2.35;;;6.60;99.90;;;;;;5039189;28;20052;-87
2023/01/14 03:31:20;;;;;;;16.63;2.00;;;6.60;99.90;;;;;;5038773;28;20052;-86
2023/01/14 03:33:55;;;;;;;14.05;2.03;;;6.60;99.90;;;;;;5055664;28;20047;-86
2023/01/14 03:36:23;;;;;;;18.00;2.45;;;6.50;99.90;;;;;;5055663;28;20052;-87
2023/01/14 03:38:56;;;;;;;17.63;2.47;;;6.50;99.90;;;;;;5055521;28;20178;-86
2023/01/14 03:44:33;;;;;;;12.57;2.22;;;6.50;99.90;;;;;;5055310;28;20480;-87
2023/01/14 03:46:59;;;;;;;16.55;1.70;;;6.50;99.90;;;;;;5037936;28;20114;-84
2023/01/14 03:49:25;;;;;;;18.02;2.65;;;6.40;99.90;;;;;;5055406;28;20045;-84
2023/01/14 03:51:58;;;;;;;18.70;2.58;;;6.40;99.90;;;;;;5038680;28;20052;-85
2023/01/14 03:54:36;;;;;;;16.45;2.60;;;6.30;99.90;;;;;;5038846;28;20400;-85
2023/01/14 03:57:13;;;;;;;17.52;2.63;;;6.30;99.90;;;;;;5055265;28;20068;-85
2023/01/14 03:59:45;;;;;;;16.27;2.15;;;6.20;99.90;;;;;;5055575;28;20133;-84
2023/01/14 04:02:11;;;;;;;;;;;6.10;99.90;;;;;;5055370;28;20044;-84
2023/01/14 04:04:38;;;;;;;18.27;2.03;;;6.10;99.90;;;;;;5072112;28;19927;-84
2023/01/14 04:07:04;;;;;;;20.83;2.80;;;6.30;99.90;;;;;;5055142;28;20056;-84
2023/01/14 04:09:29;;;;;;;24.30;2.72;;;6.10;99.90;;;;;;5038736;28;20040;-84
2023/01/14 04:11:55;;;;;;;10.82;2.45;;;6.10;99.90;;;;;;5054534;28;20052;-84
2023/01/14 04:17:05;;;;;;;18.83;2.83;;;6.10;99.90;;;;;;5054978;28;20044;-85
2023/01/14 04:19:31;;;;;;;17.40;2.65;;;6.10;99.90;;;;;;5038300;28;20396;-85
2023/01/14 04:21:56;;;;;;;18.33;2.13;;;6.00;99.90;;;;;;5055102;28;20102;-85
2023/01/14 04:24:22;;;;;;;23.30;2.47;;;5.90;99.90;;;;;;5038213;28;20484;-85
2023/01/14 04:26:48;;;;;;;17.38;2.53;;;5.90;99.90;;;;;;5038603;28;20048;-85
2023/01/14 04:29:13;;;;;;;14.55;2.25;;;6.00;99.90;;;;;;5054960;28;20106;-86
2023/01/14 04:31:39;;;;;;;15.93;3.00;;;5.90;99.90;;;;;;5055727;28;20127;-86
2023/01/14 04:34:05;;;;;;;15.82;2.10;;;5.90;99.90;;;;;;5054861;28;20048;-85
2023/01/14 04:36:30;;;;;;;16.67;2.17;;;6.00;99.90;;;;;;5054985;28;20067;-85
2023/01/14 04:38:56;;;;;;;17.98;2.50;;;6.10;99.90;;;;;;5054517;28;20074;-85
2023/01/14 04:44:06;;;;;;;16.55;2.60;;;6.10;99.90;;;;;;5054694;28;20447;-85
2023/01/14 04:46:31;;;;;;;18.73;2.58;;;6.00;99.90;;;;;;5038374;28;20044;-85
2023/01/14 04:48:57;;;;;;;12.80;1.67;;;6.10;99.90;;;;;;5038202;28;20385;-85
2023/01/14 04:51:23;;;;;;;17.90;2.28;;;6.10;99.90;;;;;;5054899;28;20036;-87
2023/01/14 04:53:48;;;;;;;16.08;2.28;;;6.10;99.90;;;;;;5038254;28;20032;-85
2023/01/14 04:56:14;;;;;;;11.30;1.75;;;6.00;99.90;;;;;;5038141;28;20135;-85
2023/01/14 04:58:40;;;;;;;20.98;2.70;;;6.00;99.90;;;;;;5038232;28;20478;-84
2023/01/14 05:01:05;;;;;;;17.25;2.35;;;6.00;99.90;;;;;;5054559;28;20047;-86
2023/01/14 05:03:31;;;;;;;15.15;1.95;;;5.90;99.90;;;;;;5054099;28;20484;-86
2023/01/14 05:05:57;;;;;;;11.50;1.73;;;5.90;99.90;;;;;;5037775;28;20067;-85
2023/01/14 05:08:23;;;;;;;20.25;2.65;;;5.90;99.90;;;;;;5021347;28;20052;-85
2023/01/14 05:10:49;;;;;;;18.48;2.80;;;5.90;99.90;;;;;;5071411;28;20041;-86
2023/01/14 05:13:15;;;;;;;12.88;1.83;;;6.10;99.90;;;;;;5037766;28;20055;-86
2023/01/14 05:15:43;;;;;;;11.48;1.70;;;5.90;99.90;;;;;;5038215;28;20131;-86
2023/01/14 05:18:11;;;;;;;18.77;3.65;;;5.90;99.90;;;;;;5021118;28;20055;-86
2023/01/14 05:20:38;;;;;;;12.13;1.70;;;5.90;99.90;;;;;;5054701;28;20424;-86
2023/01/14 05:23:07;;;;;;;16.13;2.53;;;5.90;99.90;;;;;;5056315;28;20041;-86
2023/01/14 05:25:36;;;;;;;16.45;2.40;;;5.90;99.90;;;;;;5058328;28;20048;-88
2023/01/14 05:28:05;;;;;;;13.60;2.13;;;5.90;99.90;;;;;;5041685;28;20044;-88
2023/01/14 05:30:31;;;;;;;20.42;2.65;;;5.90;99.90;;;;;;5058328;28;20129;-88
2023/01/14 05:32:57;;;;;;;10.98;1.80;;;5.90;99.90;;;;;;5041908;28;20060;-89
2023/01/14 05:35:24;;;;;;;17.08;2.65;;;5.80;99.90;;;;;;5058123;28;20054;-91
2023/01/14 05:37:49;;;;;;;12.85;2.53;;;5.80;99.90;;;;;;5058480;28;20040;-88
2023/01/14 05:40:15;;;;;;;17.48;2.80;;;5.80;99.90;;;;;;5057825;28;20094;-88
2023/01/14 05:45:37;;;;;;;11.75;1.85;;;5.90;99.90;;;;;;5057771;28;20434;-86
2023/01/14 05:48:04;;;;;;;14.40;2.35;;;6.00;99.90;;;;;;5026174;28;20049;-85
2023/01/14 05:50:30;;;;;;;16.85;2.67;;;6.00;99.90;;;;;;5041250;28;20044;-87
2023/01/14 05:52:56;;;;;;;19.58;3.03;;;6.00;99.90;;;;;;5041076;28;20044;-86
2023/01/14 05:55:21;;;;;;;20.30;2.60;;;6.10;99.90;;;;;;5040933;28;20044;-87
2023/01/14 05:57:47;;;;;;;19.60;3.10;;;6.00;99.90;;;;;;5057249;28;20489;-87
2023/01/14 06:06:20;;;;;;;15.38;2.53;;;5.90;99.90;;;;;;5040218;28;20489;-86
2023/01/14 06:08:29;;;;;;;13.48;2.80;;;5.90;99.90;;;;;;5053903;28;20474;-87
2023/01/14 06:10:54;;;;;;;19.92;2.92;;;6.00;99.90;;;;;;5054061;28;20493;-87
2023/01/14 06:13:22;;;;;;;27.90;3.75;;;6.00;99.90;;;;;;5053750;28;20052;-87
2023/01/14 06:15:51;;;;;;;21.73;4.13;;;6.10;99.90;;;;;;5053734;28;20055;-86
2023/01/14 06:18:22;;;;;;;20.58;2.85;;;6.00;99.90;;;;;;5037152;28;20114;-86
2023/01/14 06:20:53;;;;;;;20.03;3.27;;;6.00;99.90;;;;;;5053925;28;20508;-87
2023/01/14 06:23:22;;;;;;;18.83;3.70;;;5.90;99.90;;;;;;5053476;28;20045;-87
2023/01/14 06:25:49;;;;;;;19.95;3.75;;;6.00;99.90;;;;;;5037398;28;20048;-84
2023/01/14 06:28:16;;;;;;;18.48;3.63;;;5.90;99.90;;;;;;5053460;28;20045;-84
2023/01/14 06:30:42;;;;;;;18.60;3.63;;;5.90;99.90;;;;;;5037211;28;20064;-84
2023/01/14 06:33:08;;;;;;;20.67;4.32;;;5.90;99.90;;;;;;5037150;28;20553;-83
2023/01/14 06:35:39;;;;;;;17.45;4.93;;;6.20;99.90;;;;;;5036592;28;20056;-82
2023/01/14 06:38:04;;;;;;;22.52;4.95;;;5.90;99.90;;;;;;5037229;28;20044;-83
2023/01/14 06:40:30;;;;;;;28.95;6.47;;;5.90;99.90;;;;;;5036887;28;20474;-83
2023/01/14 06:42:56;;;;;;;21.67;5.72;;;5.90;99.90;;;;;;5036788;28;20485;-83
2023/01/14 06:45:23;;;;;;;23.20;6.35;;;5.90;99.90;;;;;;5020340;28;20073;-82
2023/01/14 06:47:48;;;;;;;33.70;7.90;;;6.00;99.90;;;;;;5037183;28;20171;-83
2023/01/14 06:50:17;;;;;;;25.90;6.10;;;5.90;99.90;;;;;;5036917;28;20160;-84
2023/01/14 06:52:43;;;;;;;22.10;6.10;;;5.90;99.90;;;;;;5053587;28;20092;-83
2023/01/14 06:55:09;;;;;;;28.98;6.05;;;5.90;99.90;;;;;;5053427;28;20080;-83
2023/01/14 06:57:34;;;;;;;24.83;6.15;;;5.90;99.90;;;;;;5036309;28;20524;-84
2023/01/14 07:00:00;;;;;;;25.63;5.45;;;5.80;99.90;;;;;;5020358;28;20056;-84
2023/01/14 07:02:26;;;;;;;34.70;6.38;;;5.80;99.90;;;;;;5019424;28;20517;-84
2023/01/14 07:04:51;;;;;;;33.78;6.20;;;5.80;99.90;;;;;;5036433;28;20052;-83
2023/01/14 07:07:18;;;;;;;17.85;5.18;;;5.80;99.90;;;;;;5036480;28;20052;-84
2023/01/14 07:09:44;;;;;;;29.38;5.72;;;5.80;99.90;;;;;;5018425;28;20053;-83
2023/01/14 07:12:10;;;;;;;26.98;4.72;;;5.80;99.90;;;;;;5035161;28;20061;-84
2023/01/14 07:14:35;;;;;;;21.85;4.28;;;6.50;99.90;;;;;;5019386;28;20056;-89
2023/01/14 07:17:02;;;;;;;26.98;5.40;;;6.20;99.90;;;;;;4713406;28;10000302;-89
2023/01/14 07:19:28;;;;;;;26.40;4.25;;;5.80;99.90;;;;;;5069941;28;20064;-91
2023/01/14 07:21:54;;;;;;;28.15;4.47;;;5.80;99.90;;;;;;5070076;28;20125;-87
2023/01/14 07:24:19;;;;;;;32.85;4.82;;;5.80;99.90;;;;;;5043060;28;20683;-88
2023/01/14 07:26:45;;;;;;;34.47;6.25;;;6.10;99.90;;;;;;5053226;28;20485;-88
2023/01/14 07:29:11;;;;;;;27.25;5.57;;;5.90;99.90;;;;;;5053629;28;20049;-88
2023/01/14 07:31:37;;;;;;;22.65;4.07;;;6.00;99.90;;;;;;5072994;28;20044;-88
2023/01/14 07:34:03;;;;;;;24.10;3.88;;;6.00;99.90;;;;;;5053133;28;20052;-87
2023/01/14 07:36:29;;;;;;;26.63;4.68;;;6.00;99.90;;;;;;5053040;28;20040;-88
2023/01/14 07:38:55;;;;;;;23.95;4.68;;;6.00;99.90;;;;;;5028311;28;20051;-88
2023/01/14 07:41:22;;;;;;;28.50;3.70;;;6.00;99.90;;;;;;5044222;28;20118;-88
2023/01/14 07:43:48;;;;;;;29.42;5.35;;;6.10;99.90;;;;;;5069180;28;20056;-88
2023/01/14 07:46:15;;;;;;;23.25;4.28;;;6.10;99.90;;;;;;5068222;28;20040;-89
2023/01/14 07:48:42;;;;;;;22.42;4.22;;;6.10;99.90;;;;;;5069888;28;20101;-91
2023/01/14 07:51:09;;;;;;;33.38;4.82;;;6.10;99.90;;;;;;5023546;28;20148;-93
2023/01/14 07:53:35;;;;;;;27.33;4.28;;;6.10;99.90;;;;;;5034300;28;20084;-93
2023/01/14 07:56:03;;;;;;;28.42;4.40;;;6.10;99.90;;;;;;5036177;28;20497;-94
2023/01/14 07:58:28;;;;;;;32.67;4.90;;;6.10;99.90;;;;;;5054069;28;20536;-93
2023/01/14 08:00:54;;;;;;;28.70;5.10;;;6.10;99.90;;;;;;5069639;28;20037;-96
2023/01/14 08:03:21;;;;;;;31.20;5.40;;;6.10;99.90;;;;;;5069819;28;20057;-95
2023/01/14 08:05:47;;;;;;;30.02;4.47;;;6.30;99.90;;;;;;5053418;28;20056;-95
2023/01/14 08:08:13;;;;;;;23.35;4.22;;;6.20;99.90;;;;;;5018910;28;20045;-89
2023/01/14 08:10:39;;;;;;;30.35;4.93;;;6.20;99.90;;;;;;5037892;28;20079;-93
2023/01/14 08:13:05;;;;;;;32.80;5.18;;;6.20;99.90;;;;;;5055267;28;20140;-86
2023/01/14 08:15:31;;;;;;;31.60;5.20;;;6.30;99.90;;;;;;5049826;28;20498;-87
2023/01/14 08:17:57;;;;;;;22.65;4.20;;;6.30;99.90;;;;;;5050073;28;20090;-87
2023/01/14 08:20:25;;;;;;;23.35;4.05;;;6.30;99.90;;;;;;5033331;28;20130;-84
2023/01/14 08:22:56;;;;;;;29.88;4.50;;;6.30;99.90;;;;;;5032507;28;20480;-86
2023/01/14 08:25:23;;;;;;;13.50;2.97;;;6.30;99.90;;;;;;5049783;28;20135;-86
2023/01/14 08:27:48;;;;;;;27.40;4.97;;;6.40;99.90;;;;;;5032391;28;20319;-84
2023/01/14 08:30:14;;;;;;;25.38;4.40;;;6.40;99.90;;;;;;5016683;28;20481;-83
2023/01/14 08:32:40;;;;;;;22.67;3.95;;;6.40;99.90;;;;;;5032808;28;20071;-88
2023/01/14 08:35:06;;;;;;;23.20;3.72;;;6.40;99.90;;;;;;5016887;28;20150;-89
2023/01/14 08:37:32;;;;;;;25.92;4.30;;;6.40;99.90;;;;;;5033017;28;20052;-86
2023/01/14 08:39:58;;;;;;;26.67;4.53;;;6.40;99.90;;;;;;5032981;28;20045;-85
2023/01/14 08:42:24;;;;;;;24.83;4.65;;;6.50;99.90;;;;;;5016088;28;20036;-87
2023/01/14 08:44:49;;;;;;;23.27;3.88;;;6.50;99.90;;;;;;5015708;28;20049;-88
2023/01/14 08:47:15;;;;;;;20.30;4.28;;;6.50;99.90;;;;;;5033252;28;20060;-88
2023/01/14 08:49:41;;;;;;;27.25;4.00;;;6.50;99.90;;;;;;5032785;28;20049;-87
2023/01/14 08:52:07;;;;;;;28.85;4.55;;;6.50;99.90;;;;;;5032691;28;20124;-87
2023/01/14 08:54:33;;;;;;;24.73;4.15;;;6.50;99.90;;;;;;5016189;28;20049;-86
2023/01/14 08:56:59;;;;;;;26.85;4.28;;;6.50;99.90;;;;;;5049200;28;20099;-86
2023/01/14 08:59:25;;;;;;;27.35;4.20;;;6.50;99.90;;;;;;5036916;28;20052;-85
2023/01/14 09:01:51;;;;;;;28.67;4.75;;;6.50;99.90;;;;;;5019792;28;20041;-87
2023/01/14 09:04:16;;;;;;;34.38;4.32;;;6.40;99.90;;;;;;5052800;28;20136;-86
2023/01/14 09:17:41;;;;;;;21.08;4.72;;;6.50;99.90;;;;;;5071157;28;20056;-87
2023/01/14 09:20:13;;;;;;;22.73;4.72;;;6.50;99.90;;;;;;5056428;28;20481;-86
2023/01/14 09:22:39;;;;;;;18.80;4.43;;;6.60;99.90;;;;;;5055820;28;20400;-87
2023/01/14 09:25:06;;;;;;;26.20;4.28;;;6.60;99.90;;;;;;5056577;28;20045;-88
2023/01/14 09:27:31;;;;;;;21.73;3.83;;;6.50;99.90;;;;;;5056851;28;20052;-87
2023/01/14 09:29:58;;;;;;;25.55;4.07;;;6.50;99.90;;;;;;5057303;28;20386;-85
2023/01/14 09:32:24;;;;;;;27.40;3.83;;;6.50;99.90;;;;;;5072718;28;20044;-87
2023/01/14 09:34:52;;;;;;;30.70;4.20;;;6.50;99.90;;;;;;5072583;28;20486;-86
2023/01/14 09:37:23;;;;;;;26.05;4.40;;;6.50;99.90;;;;;;5074507;28;20055;-84
2023/01/14 09:39:52;;;;;;;23.98;3.92;;;6.60;99.90;;;;;;5074505;28;20091;-86
2023/01/14 09:42:31;;;;;;;20.13;3.75;;;6.50;99.90;;;;;;5057799;28;20040;-86
2023/01/14 09:45:05;;;;;;;21.92;3.63;;;6.60;99.90;;;;;;5074597;28;20839;-81
2023/01/14 09:47:32;;;;;;;23.17;4.13;;;6.50;99.90;;;;;;5085291;28;20488;-84
2023/01/14 09:49:58;;;;;;;22.30;3.15;;;6.50;99.90;;;;;;5058441;28;20052;-84
2023/01/14 09:52:45;;;;;;;21.88;3.47;;;6.60;99.90;;;;;;5058043;28;20101;-84
2023/01/14 09:55:25;;;;;;;24.45;3.38;;;6.60;99.90;;;;;;5074656;28;20052;-84
2023/01/14 09:58:18;;;;;;;24.65;3.88;;;6.50;99.90;;;;;;5057662;28;20075;-85
2023/01/14 10:00:56;;;;;;;23.65;3.58;;;6.50;99.90;;;;;;5074342;28;20076;-85
2023/01/14 10:03:47;;;;;;;17.42;3.42;;;6.60;99.90;;;;;;5057426;28;20117;-84
2023/01/14 10:06:16;;;;;;;28.58;4.25;;;6.50;99.90;;;;;;5057711;28;20052;-85
2023/01/14 10:08:51;;;;;;;24.90;3.92;;;6.60;99.90;;;;;;5056411;28;20576;-84
2023/01/14 10:11:17;;;;;;;22.65;4.07;;;6.50;99.90;;;;;;5074388;28;20052;-84
2023/01/14 10:14:02;;;;;;;19.17;4.10;;;6.50;99.90;;;;;;5040708;28;20481;-85
2023/01/14 10:16:34;;;;;;;20.20;4.07;;;6.60;99.90;;;;;;5057290;28;20469;-84
2023/01/14 10:19:20;;;;;;;18.65;3.80;;;6.60;99.90;;;;;;5074016;28;20127;-84
2023/01/14 10:21:59;;;;;;;21.15;3.72;;;6.60;99.90;;;;;;5073206;28;20058;-85
2023/01/14 10:24:24;;;;;;;16.05;3.78;;;6.70;99.90;;;;;;5057463;28;20052;-84
2023/01/14 10:26:51;;;;;;;11.85;3.28;;;6.60;99.90;;;;;;5057111;28;20102;-84
2023/01/14 10:29:21;;;;;;;18.60;3.53;;;6.60;99.90;;;;;;5057425;28;20049;-85
2023/01/14 10:31:59;;;;;;;17.10;3.60;;;6.70;99.90;;;;;;5073393;28;20057;-84
2023/01/14 10:34:39;;;;;;;19.80;4.50;;;6.70;99.90;;;;;;5056982;28;20048;-84
2023/01/14 10:37:06;;;;;;;17.73;4.90;;;6.70;99.90;;;;;;5057172;28;20094;-85
2023/01/14 10:39:31;;;;;;;21.40;6.25;;;6.80;99.90;;;;;;5057079;28;20052;-85
2023/01/14 10:42:00;;;;;;;20.75;6.00;;;6.70;99.90;;;;;;5056424;28;20071;-85
2023/01/14 10:44:39;;;;;;;14.35;6.43;;;6.70;99.90;;;;;;5040894;28;20074;-84
2023/01/14 10:47:16;;;;;;;19.65;6.00;;;6.80;99.90;;;;;;5056682;28;20092;-85
2023/01/14 10:49:44;;;;;;;18.23;6.50;;;6.80;99.90;;;;;;5057566;28;20516;-85
2023/01/14 10:52:27;;;;;;;19.58;7.50;;;6.90;99.90;;;;;;5073217;28;20047;-85
2023/01/14 10:54:57;;;;;;;20.65;7.63;;;6.90;99.90;;;;;;5073165;28;20427;-84
2023/01/14 10:57:25;;;;;;;18.98;6.75;;;6.90;99.90;;;;;;5056716;28;20538;-85
2023/01/14 10:59:53;;;;;;;17.50;7.13;;;6.90;99.90;;;;;;5072689;28;20600;-84
2023/01/14 11:02:43;;;;;;;17.63;6.75;;;6.90;99.90;;;;;;5075829;28;20131;-85
2023/01/14 11:05:41;;;;;;;16.52;7.05;;;6.90;99.90;;;;;;5059650;28;20044;-85
2023/01/14 11:08:39;;;;;;;15.73;6.32;;;6.90;99.90;;;;;;5047756;28;20635;-85
2023/01/14 11:11:09;;;;;;;13.65;6.38;;;7.00;99.90;;;;;;5059523;28;20048;-85
2023/01/14 11:13:44;;;;;;;13.20;6.25;;;7.00;99.90;;;;;;5076047;28;20059;-84
2023/01/14 11:16:24;;;;;;;15.32;6.43;;;7.10;99.90;;;;;;5059587;28;20056;-84
2023/01/14 11:18:55;;;;;;;13.23;6.07;;;7.20;99.90;;;;;;5059699;28;20146;-85
2023/01/14 11:21:23;;;;;;;13.07;5.28;;;7.20;99.90;;;;;;5059280;28;20424;-86
2023/01/14 11:24:19;;;;;;;11.85;6.32;;;7.20;99.90;;;;;;5075878;28;20040;-84
2023/01/14 11:26:45;;;;;;;16.35;5.47;;;7.20;99.90;;;;;;5065077;28;20059;-85
2023/01/14 11:29:25;;;;;;;15.25;6.03;;;7.30;99.90;;;;;;5058849;28;20044;-85
2023/01/14 11:31:55;;;;;;;13.18;5.63;;;7.30;99.90;;;;;;5075679;28;20400;-84
2023/01/14 11:34:29;;;;;;;12.23;5.32;;;7.40;99.90;;;;;;5059014;28;20062;-84
2023/01/14 11:37:09;;;;;;;14.00;5.70;;;7.40;99.90;;;;;;5058938;28;20488;-85
2023/01/14 11:39:36;;;;;;;8.77;4.47;;;7.30;99.90;;;;;;5075856;28;20496;-84
2023/01/14 11:42:26;;;;;;;10.88;5.13;;;7.40;99.90;;;;;;5058275;28;20051;-84
2023/01/14 11:45:03;;;;;;;7.63;4.60;;;7.40;99.90;;;;;;5075723;28;20046;-84
2023/01/14 11:47:30;;;;;;;16.67;5.70;;;7.40;99.90;;;;;;5075775;28;20089;-84
2023/01/14 11:50:16;;;;;;;11.35;4.72;;;7.40;99.90;;;;;;5058909;28;20047;-84
2023/01/14 11:53:01;;;;;;;9.38;4.20;;;7.40;99.90;;;;;;5075744;28;20515;-84
2023/01/14 11:55:30;;;;;;;8.52;4.50;;;7.50;99.90;;;;;;5075576;28;20044;-84
2023/01/14 11:58:14;;;;;;;12.05;4.75;;;7.40;99.90;;;;;;5058895;28;20052;-86
2023/01/14 12:00:50;;;;;;;7.97;5.07;;;7.50;99.90;;;;;;5058929;28;20139;-84
2023/01/14 12:03:34;;;;;;;9.13;4.80;;;7.50;99.90;;;;;;5074952;28;20055;-86
2023/01/14 12:06:27;;;;;;;10.10;4.40;;;7.40;99.90;;;;;;5075470;28;20056;-84
2023/01/14 12:08:57;;;;;;;9.85;4.40;;;7.50;99.90;;;;;;5052074;28;20097;-85
2023/01/14 12:11:42;;;;;;;10.52;4.60;;;7.50;99.90;;;;;;5075404;28;20048;-85
2023/01/14 12:17:03;;;;;;;10.07;3.63;;;7.50;99.90;;;;;;5075302;28;20535;-84
2023/01/14 12:19:32;;;;;;;8.23;3.78;;;7.50;99.90;;;;;;5058359;28;20404;-87
2023/01/14 12:22:16;;;;;;;8.73;4.30;;;7.60;99.90;;;;;;5075271;28;20439;-85
2023/01/14 12:24:51;;;;;;;9.75;4.40;;;7.60;99.90;;;;;;5058571;28;20511;-85
2023/01/14 12:27:43;;;;;;;9.82;4.13;;;7.60;99.90;;;;;;5058389;28;20052;-85
2023/01/14 12:30:15;;;;;;;10.02;4.38;;;7.60;99.90;;;;;;5058353;28;20131;-85
2023/01/14 12:32:58;;;;;;;10.93;4.28;;;7.60;99.90;;;;;;5060287;28;20070;-84
2023/01/14 12:35:26;;;;;;;11.82;4.85;;;7.60;99.90;;;;;;5062453;28;20501;-85
2023/01/14 12:37:59;;;;;;;9.55;4.40;;;7.60;99.90;;;;;;5079201;28;20048;-82
2023/01/14 12:46:11;;;;;;;5.85;3.75;;;7.60;99.90;;;;;;5078996;28;20530;-83
2023/01/14 12:48:37;;;;;;;10.68;5.03;;;7.80;99.90;;;;;;5079114;28;20202;-83
2023/01/14 12:51:08;;;;;;;7.05;4.10;;;7.80;99.90;;;;;;5045723;28;20090;-86
2023/01/14 12:53:44;;;;;;;11.23;4.47;;;7.80;99.90;;;;;;5079152;28;20080;-85
2023/01/14 12:56:27;;;;;;;9.95;4.65;;;7.80;99.90;;;;;;5078882;28;20087;-83
2023/01/14 12:58:58;;;;;;;10.10;4.22;;;7.80;99.90;;;;;;5078981;28;20056;-83
2023/01/14 13:01:30;;;;;;;8.02;4.18;;;7.80;99.90;;;;;;5078714;28;20094;-86
2023/01/14 13:04:06;;;;;;;5.55;3.28;;;7.80;99.90;;;;;;5061809;28;20086;-84
2023/01/14 13:06:35;;;;;;;7.47;4.15;;;8.00;99.90;;;;;;5062150;28;20495;-83
2023/01/14 13:09:05;;;;;;;7.95;4.32;;;7.90;99.90;;;;;;5078578;28;20067;-82
2023/01/14 13:11:43;;;;;;;5.72;3.65;;;8.00;99.90;;;;;;5062057;28;20051;-83
2023/01/14 13:14:34;;;;;;;10.65;4.30;;;8.10;99.90;;;;;;5078188;28;20044;-84
2023/01/14 13:17:21;;;;;;;11.02;4.40;;;8.10;99.90;;;;;;5078556;28;20047;-82
2023/01/14 13:19:49;;;;;;;9.48;4.28;;;8.00;99.90;;;;;;5067439;28;20044;-82
2023/01/14 13:22:41;;;;;;;7.72;3.70;;;8.10;99.90;;;;;;5077110;28;20040;-83
2023/01/14 13:25:08;;;;;;;6.03;2.83;;;8.30;99.90;;;;;;5058340;28;20044;-84
2023/01/14 13:27:35;;;;;;;5.05;2.72;;;8.20;99.90;;;;;;5076077;28;20056;-82
2023/01/14 13:30:17;;;;;;;4.25;2.20;;;8.30;99.90;;;;;;5076450;28;20056;-84
2023/01/14 13:32:53;;;;;;;5.18;2.15;;;8.40;99.90;;;;;;5059448;28;20135;-83
2023/01/14 13:35:22;;;;;;;4.80;2.30;;;8.50;99.90;;;;;;5058812;28;20052;-85
2023/01/14 13:37:51;;;;;;;4.90;2.00;;;8.50;99.90;;;;;;5059507;28;20059;-85
2023/01/14 13:40:27;;;;;;;3.88;1.98;;;8.50;99.90;;;;;;5075836;28;20052;-81
2023/01/14 13:43:06;;;;;;;3.78;2.28;;;8.60;99.90;;;;;;5058727;28;20082;-83